createdAt,value
2023-05-01T00:03:20.106Z,5.671082
2023-05-01T00:06:45.281Z,5.741577
2023-05-01T00:10:10.492Z,5.751648
2023-05-01T00:13:35.817Z,5.721436
2023-05-01T00:17:01.049Z,5.681152
2023-05-01T00:20:26.362Z,5.600586
2023-05-01T00:23:51.608Z,5.429382
2023-05-01T00:27:16.883Z,5.308533
2023-05-01T00:30:42.140Z,5.217896
2023-05-01T00:34:07.413Z,5.197754
2023-05-01T00:37:32.641Z,5.127258
2023-05-01T00:40:57.891Z,5.167542
2023-05-01T00:44:23.129Z,5.26825
2023-05-01T00:47:48.442Z,5.248108
2023-05-01T00:51:13.679Z,5.348816
2023-05-01T00:54:38.947Z,5.540161
2023-05-01T00:58:04.197Z,5.600586
2023-05-01T01:01:29.455Z,5.570374
2023-05-01T01:04:54.746Z,5.489807
2023-05-01T01:08:19.968Z,5.389099
2023-05-01T01:11:45.216Z,5.479736
2023-05-01T01:15:10.468Z,5.53009
2023-05-01T01:18:35.698Z,5.610657
2023-05-01T01:22:00.956Z,5.570374
2023-05-01T01:25:26.174Z,5.509949
2023-05-01T01:28:51.455Z,5.389099
2023-05-01T01:32:16.709Z,5.328674
2023-05-01T01:35:41.948Z,5.419312
2023-05-01T01:39:07.218Z,5.489807
2023-05-01T01:42:32.452Z,5.53009
2023-05-01T01:45:57.710Z,5.509949
2023-05-01T01:49:22.914Z,5.540161
2023-05-01T01:52:48.186Z,5.489807
2023-05-01T01:56:13.471Z,5.459595
2023-05-01T01:59:38.700Z,5.358887
2023-05-01T02:03:04.006Z,5.308533
2023-05-01T02:06:29.253Z,5.26825
2023-05-01T02:09:54.798Z,5.197754
2023-05-01T02:13:19.729Z,5.086975
2023-05-01T02:16:44.956Z,5.117188
2023-05-01T02:20:10.200Z,5.086975
2023-05-01T02:23:35.431Z,5.167542
2023-05-01T02:27:00.691Z,5.207825
2023-05-01T02:30:25.964Z,5.238037
2023-05-01T02:33:51.214Z,5.217896
2023-05-01T02:37:16.492Z,5.238037
2023-05-01T02:40:41.718Z,5.26825
2023-05-01T02:44:06.953Z,5.27832
2023-05-01T02:47:32.259Z,5.26825
2023-05-01T02:50:57.488Z,5.238037
2023-05-01T02:54:22.678Z,5.248108
2023-05-01T02:57:47.950Z,5.248108
2023-05-01T03:01:13.199Z,5.248108
2023-05-01T03:04:38.632Z,5.177612
2023-05-01T03:08:03.653Z,5.207825
2023-05-01T03:11:28.938Z,5.207825
2023-05-01T03:14:54.174Z,5.197754
2023-05-01T03:18:19.424Z,5.097046
2023-05-01T03:21:44.690Z,4.956055
2023-05-01T03:25:09.906Z,4.845276
2023-05-01T03:28:35.150Z,4.815063
2023-05-01T03:32:00.426Z,4.815063
2023-05-01T03:35:25.731Z,4.845276
2023-05-01T03:38:50.907Z,4.855347
2023-05-01T03:42:16.133Z,4.815063
2023-05-01T03:45:43.375Z,4.845276
2023-05-01T03:49:06.652Z,4.956055
2023-05-01T03:52:31.881Z,5.016479
2023-05-01T03:55:57.152Z,5.036621
2023-05-01T03:59:22.458Z,5.097046
2023-05-01T04:02:47.902Z,5.066833
2023-05-01T04:06:12.947Z,5.056763
2023-05-01T04:09:38.176Z,5.097046
2023-05-01T04:13:03.501Z,5.1474
2023-05-01T04:16:28.791Z,5.167542
2023-05-01T04:19:54.478Z,5.207825
2023-05-01T04:23:19.239Z,5.248108
2023-05-01T04:26:44.493Z,5.39917
2023-05-01T04:30:09.747Z,5.429382
2023-05-01T04:33:34.959Z,5.540161
2023-05-01T04:37:00.203Z,5.610657
2023-05-01T04:40:25.450Z,5.741577
2023-05-01T04:43:50.689Z,5.812073
2023-05-01T04:47:15.971Z,5.932922
2023-05-01T04:50:41.203Z,6.013489
2023-05-01T04:54:06.468Z,6.15448
2023-05-01T04:57:31.697Z,6.224976
2023-05-01T05:00:56.974Z,6.27533
2023-05-01T05:04:22.228Z,6.426392
2023-05-01T05:07:47.453Z,6.547241
2023-05-01T05:11:12.708Z,6.577454
2023-05-01T05:14:37.922Z,6.668091
2023-05-01T05:18:03.192Z,6.738586
2023-05-01T05:21:28.669Z,6.869507
2023-05-01T05:24:53.695Z,6.980286
2023-05-01T05:28:18.951Z,7.091064
2023-05-01T05:31:44.210Z,7.151489
2023-05-01T05:35:09.439Z,7.242126
2023-05-01T05:38:34.718Z,7.373047
2023-05-01T05:41:59.965Z,7.503967
2023-05-01T05:45:25.204Z,7.614746
2023-05-01T05:48:50.455Z,7.745667
2023-05-01T05:52:15.738Z,7.91687
2023-05-01T05:55:41.012Z,7.997437
2023-05-01T05:59:06.279Z,8.178711
2023-05-01T06:02:31.522Z,8.370056
2023-05-01T06:05:56.838Z,8.531189
2023-05-01T06:09:22.000Z,8.682251
2023-05-01T06:12:48.200Z,8.913879
2023-05-01T06:16:12.576Z,9.17572
2023-05-01T06:19:37.869Z,9.377136
2023-05-01T06:23:03.113Z,9.497986
2023-05-01T06:26:28.397Z,9.508057
2023-05-01T06:29:53.860Z,9.477844
2023-05-01T06:33:18.948Z,9.558411
2023-05-01T06:36:44.187Z,9.659119
2023-05-01T06:40:09.466Z,9.649048
2023-05-01T06:43:34.716Z,9.739685
2023-05-01T06:47:00.026Z,9.870605
2023-05-01T06:50:25.184Z,10.011597
2023-05-01T06:53:50.456Z,10.112305
2023-05-01T06:57:15.631Z,10.172729
2023-05-01T07:00:40.979Z,10.293579
2023-05-01T07:04:06.212Z,10.4245
2023-05-01T07:07:31.411Z,10.4245
2023-05-01T07:10:56.680Z,10.484924
2023-05-01T07:14:22.461Z,10.525208
2023-05-01T07:17:47.728Z,10.595703
2023-05-01T07:21:13.000Z,10.635986
2023-05-01T07:24:38.275Z,10.696411
2023-05-01T07:28:03.506Z,10.787048
2023-05-01T07:31:28.806Z,10.787048
2023-05-01T07:34:54.007Z,10.756836
2023-05-01T07:38:19.376Z,10.787048
2023-05-01T07:41:44.533Z,10.857544
2023-05-01T07:45:09.754Z,11.038818
2023-05-01T07:48:35.616Z,11.18988
2023-05-01T07:52:00.227Z,11.391296
2023-05-01T07:55:25.510Z,11.522217
2023-05-01T07:58:50.713Z,11.653137
2023-05-01T08:02:16.018Z,11.824341
2023-05-01T08:05:41.218Z,11.985474
2023-05-01T08:09:06.467Z,12.116394
2023-05-01T08:12:31.768Z,12.237244
2023-05-01T08:15:57.050Z,12.348022
2023-05-01T08:19:22.296Z,12.519226
2023-05-01T08:22:47.556Z,12.7005
2023-05-01T08:26:12.823Z,12.791138
2023-05-01T08:29:38.124Z,12.901917
2023-05-01T08:33:03.391Z,13.07312
2023-05-01T08:36:28.631Z,13.143616
2023-05-01T08:39:54.047Z,13.123474
2023-05-01T08:43:19.170Z,13.052979
2023-05-01T08:46:44.560Z,13.103333
2023-05-01T08:50:09.731Z,13.103333
2023-05-01T08:53:34.986Z,13.042908
2023-05-01T08:57:00.265Z,13.042908
2023-05-01T09:00:25.536Z,13.143616
2023-05-01T09:03:50.943Z,13.204041
2023-05-01T09:07:16.106Z,13.264465
2023-05-01T09:10:41.388Z,13.284607
2023-05-01T09:14:06.639Z,13.294678
2023-05-01T09:17:31.933Z,13.334961
2023-05-01T09:20:57.237Z,13.435669
2023-05-01T09:24:22.497Z,13.596802
2023-05-01T09:27:47.772Z,13.808289
2023-05-01T09:31:13.049Z,14.019775
2023-05-01T09:34:38.311Z,14.120483
2023-05-01T09:38:03.631Z,14.120483
2023-05-01T09:41:29.056Z,14.170837
2023-05-01T09:44:54.340Z,14.180908
2023-05-01T09:48:19.605Z,14.20105
2023-05-01T09:51:44.902Z,14.33197
2023-05-01T09:55:10.219Z,14.422607
2023-05-01T09:58:35.445Z,14.432678
2023-05-01T10:02:00.760Z,14.543457
2023-05-01T10:05:26.060Z,14.613953
2023-05-01T10:08:51.363Z,14.684448
2023-05-01T10:12:16.682Z,14.765015
2023-05-01T10:15:41.915Z,14.885864
2023-05-01T10:19:07.168Z,14.916077
2023-05-01T10:22:32.405Z,15.057068
2023-05-01T10:25:57.642Z,15.157776
2023-05-01T10:29:22.943Z,15.127563
2023-05-01T10:32:48.192Z,15.006714
2023-05-01T10:36:13.526Z,14.885864
2023-05-01T10:39:38.790Z,14.765015
2023-05-01T10:43:04.015Z,14.724731
2023-05-01T10:46:29.363Z,14.654236
2023-05-01T10:49:54.523Z,14.775085
2023-05-01T10:53:19.792Z,14.906006
2023-05-01T10:56:45.049Z,15.057068
2023-05-01T11:00:10.319Z,15.137634
2023-05-01T11:03:35.561Z,15.278625
2023-05-01T11:07:00.885Z,15.308838
2023-05-01T11:10:26.126Z,15.349121
2023-05-01T11:13:51.370Z,15.439758
2023-05-01T11:17:16.644Z,15.409546
2023-05-01T11:20:41.939Z,15.439758
2023-05-01T11:24:07.190Z,15.540466
2023-05-01T11:27:32.431Z,15.621033
2023-05-01T11:30:57.661Z,15.641174
2023-05-01T11:34:22.968Z,15.600891
2023-05-01T11:37:48.258Z,15.641174
2023-05-01T11:41:13.487Z,15.651245
2023-05-01T11:44:38.779Z,15.600891
2023-05-01T11:48:05.031Z,15.530396
2023-05-01T11:51:29.359Z,15.59082
2023-05-01T11:54:54.759Z,15.560608
2023-05-01T11:58:19.999Z,15.540466
2023-05-01T12:01:45.250Z,15.510254
2023-05-01T12:05:10.470Z,15.621033
2023-05-01T12:08:35.841Z,15.651245
2023-05-01T12:12:01.158Z,15.71167
2023-05-01T12:15:26.454Z,15.671387
2023-05-01T12:18:51.717Z,15.71167
2023-05-01T12:22:16.996Z,15.762024
2023-05-01T12:25:42.317Z,15.751953
2023-05-01T12:29:07.668Z,15.741882
2023-05-01T12:32:32.918Z,15.691528
2023-05-01T12:35:58.200Z,15.681458
2023-05-01T12:39:23.515Z,15.741882
2023-05-01T12:42:48.753Z,15.751953
2023-05-01T12:46:14.032Z,15.762024
2023-05-01T12:49:39.260Z,15.741882
2023-05-01T12:53:04.499Z,15.651245
2023-05-01T12:56:29.827Z,15.570679
2023-05-01T12:59:55.122Z,15.59082
2023-05-01T13:03:20.511Z,15.570679
2023-05-01T13:06:45.716Z,15.570679
2023-05-01T13:10:10.905Z,15.540466
2023-05-01T13:13:36.175Z,15.59082
2023-05-01T13:17:01.473Z,15.59082
2023-05-01T13:20:26.783Z,15.59082
2023-05-01T13:23:52.051Z,15.510254
2023-05-01T13:27:17.301Z,15.469971
2023-05-01T13:30:42.606Z,15.469971
2023-05-01T13:34:07.876Z,15.429688
2023-05-01T13:37:33.196Z,15.389404
2023-05-01T13:40:58.462Z,15.33905
2023-05-01T13:44:23.747Z,15.308838
2023-05-01T13:47:49.176Z,15.33905
2023-05-01T13:51:14.341Z,15.288696
2023-05-01T13:54:40.337Z,15.278625
2023-05-01T13:58:05.663Z,15.248413
2023-05-01T14:01:30.963Z,15.248413
2023-05-01T14:04:58.268Z,15.20813
2023-05-01T14:08:21.491Z,15.157776
2023-05-01T14:11:46.860Z,15.127563
2023-05-01T14:15:12.016Z,15.097351
2023-05-01T14:18:37.304Z,15.016785
2023-05-01T14:22:02.533Z,15.006714
2023-05-01T14:25:27.790Z,14.986572
2023-05-01T14:28:53.093Z,14.976501
2023-05-01T14:32:18.309Z,14.986572
2023-05-01T14:35:43.586Z,15.067139
2023-05-01T14:39:08.861Z,15.067139
2023-05-01T14:42:34.124Z,15.006714
2023-05-01T14:45:59.506Z,14.916077
2023-05-01T14:49:24.729Z,14.795227
2023-05-01T14:52:49.990Z,14.684448
2023-05-01T14:56:15.271Z,14.462891
2023-05-01T14:59:40.607Z,14.291687
2023-05-01T15:03:06.115Z,14.140625
2023-05-01T15:40:05.521Z,12.337952
2023-05-01T15:43:30.778Z,12.156677
2023-05-01T15:46:56.150Z,12.116394
2023-05-01T15:50:22.124Z,12.035828
2023-05-01T15:53:46.457Z,11.955261
2023-05-01T15:57:11.698Z,11.955261
2023-05-01T16:00:36.923Z,11.975403
2023-05-01T16:04:02.255Z,11.93512
2023-05-01T16:07:27.466Z,11.854553
2023-05-01T16:10:52.685Z,11.804199
2023-05-01T16:14:17.917Z,11.824341
2023-05-01T16:17:43.167Z,11.763916
2023-05-01T16:21:08.292Z,11.733704
2023-05-01T16:24:33.487Z,11.733704
2023-05-01T16:27:58.690Z,11.723633
2023-05-01T16:31:27.295Z,11.622925
2023-05-01T16:34:49.160Z,11.622925
2023-05-01T16:38:14.351Z,11.602783
2023-05-01T16:41:39.561Z,11.582642
2023-05-01T16:45:05.729Z,11.572571
2023-05-01T16:48:29.994Z,11.512146
2023-05-01T16:51:55.172Z,11.542358
2023-05-01T16:55:20.368Z,11.512146
2023-05-01T16:58:45.591Z,11.461792
2023-05-01T17:02:10.843Z,11.44165
2023-05-01T17:05:36.054Z,11.461792
2023-05-01T17:09:01.248Z,11.461792
2023-05-01T17:12:26.539Z,11.512146
2023-05-01T17:15:51.806Z,11.542358
2023-05-01T17:19:17.050Z,11.542358
2023-05-01T17:22:42.267Z,11.512146
2023-05-01T17:26:07.418Z,11.542358
2023-05-01T17:29:32.611Z,11.492004
2023-05-01T17:32:57.886Z,11.522217
2023-05-01T17:36:22.954Z,11.512146
2023-05-01T17:39:48.146Z,11.471863
2023-05-01T17:43:13.323Z,11.401367
2023-05-01T17:46:38.550Z,11.371155
2023-05-01T17:50:03.777Z,11.320801
2023-05-01T17:53:28.994Z,11.270447
2023-05-01T17:56:54.173Z,11.17981
2023-05-01T18:00:19.331Z,11.109314
2023-05-01T18:03:44.583Z,11.139526
2023-05-01T18:07:09.714Z,11.109314
2023-05-01T18:10:34.922Z,11.139526
2023-05-01T18:14:00.111Z,11.169739
2023-05-01T18:17:25.275Z,11.17981
2023-05-01T18:20:50.475Z,11.17981
2023-05-01T18:24:15.649Z,11.220093
2023-05-01T18:27:40.803Z,11.250305
2023-05-01T18:31:06.066Z,11.240234
2023-05-01T18:34:31.184Z,11.240234
2023-05-01T18:37:56.394Z,11.220093
2023-05-01T18:41:21.562Z,11.18988
2023-05-01T18:44:46.756Z,11.139526
2023-05-01T18:48:12.014Z,11.089172
2023-05-01T18:51:37.180Z,11.018677
2023-05-01T18:55:02.385Z,11.018677
2023-05-01T18:58:27.590Z,10.998535
2023-05-01T19:01:52.758Z,11.018677
2023-05-01T19:05:18.043Z,11.05896
2023-05-01T19:08:43.125Z,11.038818
2023-05-01T19:12:08.328Z,11.05896
2023-05-01T19:15:33.555Z,11.089172
2023-05-01T19:18:58.732Z,11.149597
2023-05-01T19:22:23.897Z,11.149597
2023-05-01T19:25:49.046Z,11.169739
2023-05-01T19:29:14.272Z,11.149597
2023-05-01T19:32:39.501Z,11.139526
2023-05-01T19:36:04.670Z,11.17981
2023-05-01T19:39:29.912Z,11.210022
2023-05-01T19:42:55.200Z,11.17981
2023-05-01T19:46:20.417Z,11.149597
2023-05-01T19:49:45.576Z,11.109314
2023-05-01T19:53:10.757Z,11.089172
2023-05-01T19:56:35.951Z,11.028748
2023-05-01T20:00:01.494Z,10.917969
2023-05-01T20:03:26.555Z,10.93811
2023-05-01T20:06:51.679Z,10.968323
2023-05-01T20:10:16.678Z,11.028748
2023-05-01T20:13:41.880Z,10.93811
2023-05-01T20:17:07.087Z,10.857544
2023-05-01T20:20:32.225Z,10.887756
2023-05-01T20:23:57.371Z,10.857544
2023-05-01T20:27:22.563Z,10.887756
2023-05-01T20:30:47.827Z,10.887756
2023-05-01T20:34:12.937Z,10.877686
2023-05-01T20:37:38.109Z,10.857544
2023-05-01T20:41:03.273Z,10.847473
2023-05-01T20:44:28.471Z,10.847473
2023-05-01T20:47:53.706Z,10.80719
2023-05-01T20:51:18.824Z,10.736694
2023-05-01T20:54:44.004Z,10.776978
2023-05-01T20:58:09.196Z,10.817261
2023-05-01T21:01:34.401Z,10.887756
2023-05-01T21:04:59.562Z,10.907898
2023-05-01T21:08:25.168Z,10.817261
2023-05-01T21:11:50.352Z,10.696411
2023-05-01T21:15:15.539Z,10.635986
2023-05-01T21:18:40.718Z,10.545349
2023-05-01T21:22:05.886Z,10.454712
2023-05-01T21:25:31.033Z,10.384216
2023-05-01T21:28:56.208Z,10.333862
2023-05-01T21:32:21.367Z,10.293579
2023-05-01T21:35:46.556Z,10.323792
2023-05-01T21:39:11.758Z,10.30365
2023-05-01T21:42:36.900Z,10.233154
2023-05-01T21:46:02.095Z,10.072021
2023-05-01T21:49:27.271Z,9.991455
2023-05-01T21:52:52.461Z,9.93103
2023-05-01T21:56:17.665Z,9.900818
2023-05-01T21:59:42.824Z,9.890747
2023-05-01T22:03:08.040Z,9.890747
2023-05-01T22:06:33.201Z,9.860535
2023-05-01T22:09:58.523Z,9.830322
2023-05-01T22:13:23.561Z,9.830322
2023-05-01T22:16:48.734Z,9.840393
2023-05-01T22:20:13.929Z,9.810181
2023-05-01T22:23:39.098Z,9.749756
2023-05-01T22:27:04.273Z,9.709473
2023-05-01T22:30:29.501Z,9.649048
2023-05-01T22:33:54.647Z,9.558411
2023-05-01T22:37:19.825Z,9.538269
2023-05-01T22:40:45.049Z,9.538269
2023-05-01T22:44:10.243Z,9.538269
2023-05-01T22:47:35.489Z,9.508057
2023-05-01T22:51:00.582Z,9.497986
2023-05-01T22:54:25.779Z,9.497986
2023-05-01T22:57:50.917Z,9.457703
2023-05-01T23:01:16.154Z,9.417419
2023-05-01T23:04:41.445Z,9.417419
2023-05-01T23:08:06.492Z,9.457703
2023-05-01T23:11:31.657Z,9.377136
2023-05-01T23:14:56.837Z,9.387207
2023-05-01T23:18:22.003Z,9.387207
2023-05-01T23:21:47.208Z,9.326782
2023-05-01T23:25:12.363Z,9.316711
2023-05-01T23:28:37.526Z,9.256287
2023-05-01T23:32:02.732Z,9.256287
2023-05-01T23:35:27.903Z,9.286499
2023-05-01T23:38:53.116Z,9.316711
2023-05-01T23:42:18.255Z,9.316711
2023-05-01T23:45:43.431Z,9.316711
2023-05-01T23:49:08.622Z,9.276428
2023-05-01T23:52:33.801Z,9.226074
2023-05-01T23:55:58.994Z,9.165649
2023-05-01T23:59:24.151Z,9.125366
